Weather observations for the past three days for
Bloomington, Monroe County Airport
Imperial (Metric)
Date Time (edt) Wind (mph) Vis. (mi.) Weather Sky Cond. Temperature (ºF) Relative Humidity Wind Chill (°F) Heat Index (°F) Pressure Precipitation (in)
Air Dwpt 6 hour altimeter (in) sea level (mb) 1 hr 3 hr 6 hr
Max. Min.
02 12:53 SW 9 10.00 Fair CLR 90 72 56% 97 30.08 1017.5
02 11:53 SW 9 10.00 Fair CLR 89.1 73.9 61% 98 30.09 1017.8
02 10:53 SW 8 10.00 Fair CLR 86 73.9 67% 94 30.08 1017.7
02 09:53 SW 7 10.00 Fair CLR 82.9 73 72% 89 30.09 1018.1
02 08:53 SW 5 10.00 Fair CLR 79 73 82% 82 30.09 1018.0
02 07:53 Calm 10.00 Fair CLR 70 69.1 77 70 97% 30.08 1017.9
02 06:53 Calm 10.00 Fair CLR 71.1 69.1 94% 30.07 1017.3
02 05:53 Calm 10.00 Fair CLR 73 70 90% 30.06 1017.0
02 04:53 SW 5 10.00 Fair CLR 73.9 70 88% 30.05 1016.6
02 03:53 SW 6 10.00 Fair CLR 75 71.1 88% 75 30.05 1016.4
02 02:53 Calm 10.00 Fair CLR 73.9 71.1 91% 30.05 1016.6
02 01:53 SW 3 10.00 Fair CLR 77 71.1 86 75.9 82% 79 30.05 1016.4
02 00:53 SW 6 10.00 Fair CLR 79 71.1 77% 82 30.04 1016.3
01 23:53 Calm 10.00 Fair CLR 77 72 85% 78 30.05 1016.6
01 22:53 S 3 10.00 Fair CLR 75.9 73 91% 76 30.05 1016.6
01 21:53 Calm 10.00 Fair CLR 79 73 82% 82 30.04 1016.4
01 20:53 S 5 10.00 Fair CLR 82 72 72% 87 30.02 1015.7
01 19:53 S 6 10.00 Fair CLR 86 73.9 93.9 86 67% 94 30.03 1015.8
01 18:53 S 7 10.00 Fair CLR 91 73 56% 100 30.03 1015.8
01 17:53 SW 6 10.00 Fair CLR 93 71.1 49% 100 30.02 1015.6
01 16:53 W 5 10.00 Fair CLR 93.9 70 46% 100 30.03 1015.7
01 15:53 W 6 10.00 Fair CLR 93 70 47% 99 30.04 1016.2
01 14:53 SW 6 10.00 Fair CLR 91.9 73 54% 101 30.06 1016.8
01 13:53 SW 8 10.00 Fair CLR 91 73 91 73.9 56% 100 30.07 1017.3
01 12:53 SW 8 10.00 Fair CLR 89.1 73.9 61% 98 30.08 1017.6
01 11:53 W 10 10.00 Fair CLR 86 72 63% 92 30.1 1018.1
01 10:53 SW 8 10.00 Fair CLR 84 73 70% 90 30.09 1017.9
01 09:53 SW 9 10.00 Fair CLR 81 72 74% 85 30.09 1018.1
01 08:53 SW 7 10.00 Fair CLR 78.1 71.1 79% 80 30.1 1018.3
01 07:53 SW 5 10.00 Fair CLR 73.9 70 75 71.1 88% 30.09 1017.8
01 06:53 SW 7 10.00 Fair CLR 73 70 90% 30.07 1017.3
01 05:53 SW 6 10.00 Fair CLR 73.9 70 88% 30.06 1017.0
01 04:53 SW 6 10.00 Fair CLR 73.9 69.1 85% 30.05 1016.7
01 03:53 SW 6 10.00 Fair CLR 73 69.1 87% 30.05 1016.6
01 02:53 SW 6 10.00 Fair CLR 75 69.1 82% 75 30.05 1016.6
01 01:53 SW 5 10.00 Fair CLR 73.9 70 84.9 73.9 88% 30.06 1017.0
01 00:53 SW 3 10.00 Fair CLR 75.9 70 82% 77 30.06 1016.9
31 23:53 SW 3 10.00 Fair CLR 75.9 72 88% 76 30.06 1016.8
31 22:53 S 3 10.00 Fair CLR 78.1 72 82% 80 30.06 1016.8
31 21:53 S 7 10.00 Fair CLR 80.1 72 76% 84 30.05 1016.5
31 20:53 Calm 10.00 Fair CLR 77 73.9 90% 78 30.04 1016.4
31 19:53 S 5 10.00 Fair CLR 84.9 73 91 84.9 68% 92 30.03 1016.1
31 18:53 S 8 8.00 Fair CLR 88 73 61% 96 30.03 1016.1
31 17:53 S 10 G 17 8.00 A Few Clouds FEW060 90 72 56% 97 30.04 1016.1
31 16:53 S 9 9.00 A Few Clouds FEW050 90 73 58% 98 30.05 1016.5
31 15:53 SW 12 G 18 10.00 Partly Cloudy SCT055 90 72 56% 97 30.06 1017.0
31 14:53 Vrbl 6 G 16 10.00 Fair CLR 90 72 56% 97 30.08 1017.7
31 13:53 SW 12 G 24 10.00 Partly Cloudy FEW045 FEW060 SCT075 90 72 90 70 56% 97 30.1 1018.1
31 12:53 W 9 G 17 10.00 Fair CLR 88 73 61% 96 30.11 1018.8
31 11:53 SW 10 10.00 Fair CLR 86 73 65% 93 30.11 1018.9
31 10:53 SW 10 10.00 Fair CLR 84 72 67% 90 30.12 1018.9
31 09:53 SW 9 10.00 Fair CLR 80.1 72 76% 84 30.11 1018.8
31 07:53 Calm 9.00 Fair CLR 70 69.1 75.9 69.1 97% 30.08 1018.0
31 06:53 Calm 10.00 Fair CLR 70 69.1 97% 30.08 1017.6
31 05:53 Calm 10.00 Fair CLR 71.1 69.1 94% 30.06 1017.2
31 04:53 Calm 10.00 Fair CLR 75.9 68 77% 77 30.06 1016.9
31 02:53 Calm 10.00 Fair CLR 71.1 69.1 94% 30.07 1017.3
31 01:53 Calm 10.00 Fair CLR 71.1 70 79 69.1 96% 30.07 1017.3
31 00:53 Calm 10.00 Fair CLR 70 69.1 97% 30.07 1017.5
30 23:53 Calm 10.00 Fair CLR 70 69.1 97% 30.07 1017.3
30 22:53 Calm 10.00 Fair CLR 70 69.1 97% 30.07 1017.4
30 21:53 Calm 10.00 Fair CLR 70 69.1 97% 30.07 1017.4
30 20:53 Calm 10.00 Fair CLR 73.9 70 88% 30.05 1017.0
30 19:53 Calm 10.00 Fair CLR 79 71.1 89.1 79 77% 82 30.05 1016.8
30 18:53 S 6 10.00 Fair CLR 84.9 66.9 55% 88 30.04 1016.5
30 17:53 S 10 10.00 Fair CLR 87.1 66.9 51% 90 30.05 1016.7
30 16:53 S 9 10.00 Fair CLR 88 66 48% 90 30.06 1017.2
30 15:53 S 6 10.00 A Few Clouds FEW050 87.1 66.9 51% 90 30.08 1017.9
30 14:53 W 8 10.00 Partly Cloudy SCT050 87.1 66 50% 89 30.1 1018.5
30 13:53 S 8 10.00 Fair CLR 86 69.1 86 64 57% 90 30.11 1018.9
Date Time (edt) Wind (mph) Vis. (mi.) Weather Sky Cond. Air Dwpt Max. Min. Relative Humidity Wind Chill (°F) Heat Index (°F) altimeter (in) sea level (mb) 1 hr 3 hr 6 hr
6 hour
Temperature (ºF) Pressure Precipitation (in)